Time;durP1;ratioP1;P1;durP2;ratioP2;P2;SDS_P1;SDS_P2;PMS_P1;PMS_P2;Temp;Humidity;BMP_temperature;BMP_pressure;BME280_temperature;BME280_humidity;BME280_pressure;Samples;Min_cycle;Max_cycle;Signal;HPM_P1;HPM_P2
2022/07/25 00:01:47;;;;;;;4.13;3.38;;;;;;;;;;5091896;28;20476;-77
2022/07/25 00:04:13;;;;;;;5.55;2.97;;;;;;;;;;5071646;28;20093;-77
2022/07/25 00:06:39;;;;;;;4.28;3.47;;;;;;;;;;5042266;28;20105;-77
2022/07/25 00:09:06;;;;;;;5.15;3.75;;;;;;;;;;5073835;28;20060;-76
2022/07/25 00:11:32;;;;;;;6.15;3.22;;;;;;;;;;5046309;28;20044;-76
2022/07/25 00:13:58;;;;;;;3.92;3.20;;;;;;;;;;5083682;28;20040;-77
2022/07/25 00:16:24;;;;;;;6.35;3.50;;;;;;;;;;5070923;28;20044;-77
2022/07/25 00:18:50;;;;;;;6.75;4.03;;;;;;;;;;5084996;28;20034;-77
2022/07/25 00:21:17;;;;;;;4.80;3.42;;;;;;;;;;5077299;28;20048;-77
2022/07/25 00:23:43;;;;;;;5.80;3.50;;;;;;;;;;5091910;28;20442;-76
2022/07/25 00:26:09;;;;;;;4.57;3.55;;;;;;;;;;5059451;28;20458;-77
2022/07/25 00:28:35;;;;;;;5.07;3.50;;;;;;;;;;5072630;28;20058;-76
2022/07/25 00:31:01;;;;;;;6.25;3.70;;;;;;;;;;5081439;28;20047;-75
2022/07/25 00:33:27;;;;;;;6.28;3.92;;;;;;;;;;5103643;28;20488;-77
2022/07/25 00:35:53;;;;;;;5.68;4.00;;;;;;;;;;5099677;28;20452;-76
2022/07/25 00:38:19;;;;;;;6.05;3.83;;;;;;;;;;5082625;28;20044;-77
2022/07/25 00:40:46;;;;;;;6.28;3.90;;;;;;;;;;5085622;28;20027;-77
2022/07/25 00:43:12;;;;;;;6.68;4.05;;;;;;;;;;5088667;28;20103;-77
2022/07/25 00:45:38;;;;;;;5.00;3.53;;;;;;;;;;5077861;28;20040;-77
2022/07/25 00:48:04;;;;;;;7.15;4.10;;;;;;;;;;5074494;28;20036;-77
2022/07/25 00:50:30;;;;;;;5.88;4.20;;;;;;;;;;5082044;28;20504;-78
2022/07/25 00:52:56;;;;;;;5.40;4.15;;;;;;;;;;5088177;28;20408;-77
2022/07/25 00:55:23;;;;;;;5.53;4.10;;;;;;;;;;5091893;28;20039;-76
2022/07/25 00:57:49;;;;;;;5.03;4.10;;;;;;;;;;5088803;28;20135;-77
2022/07/25 01:00:16;;;;;;;7.25;4.40;;;;;;;;;;5090573;28;20040;-77
2022/07/25 01:02:42;;;;;;;6.55;4.40;;;;;;;;;;5078197;28;20127;-77
2022/07/25 01:05:09;;;;;;;6.43;4.25;;;;;;;;;;5080956;28;20111;-76
2022/07/25 01:07:36;;;;;;;5.65;4.50;;;;;;;;;;5086511;28;20419;-77
2022/07/25 01:10:02;;;;;;;6.63;4.53;;;;;;;;;;5059540;28;20407;-76
2022/07/25 01:12:29;;;;;;;6.82;5.07;;;;;;;;;;5070809;28;20369;-76
2022/07/25 01:14:55;;;;;;;8.38;4.90;;;;;;;;;;5053698;28;20048;-77
2022/07/25 01:17:21;;;;;;;7.45;4.40;;;;;;;;;;5057539;28;20480;-77
2022/07/25 01:19:47;;;;;;;9.65;4.93;;;;;;;;;;5081923;28;20369;-76
2022/07/25 01:22:13;;;;;;;6.93;5.05;;;;;;;;;;5081276;28;20047;-77
2022/07/25 01:24:39;;;;;;;7.93;5.22;;;;;;;;;;5072485;28;20040;-73
2022/07/25 01:27:05;;;;;;;5.70;4.78;;;;;;;;;;5074488;28;20040;-77
2022/07/25 01:29:31;;;;;;;7.90;4.85;;;;;;;;;;5082191;28;20032;-77
2022/07/25 01:31:57;;;;;;;8.48;5.22;;;;;;;;;;5074196;28;20040;-76
2022/07/25 01:34:23;;;;;;;7.55;4.88;;;;;;;;;;5068275;28;20484;-77
2022/07/25 01:36:50;;;;;;;8.45;5.18;;;;;;;;;;5062731;28;20040;-76
2022/07/25 01:39:16;;;;;;;6.15;5.18;;;;;;;;;;5067136;28;20115;-75
2022/07/25 01:41:42;;;;;;;7.75;5.07;;;;;;;;;;5056864;28;20036;-75
2022/07/25 01:44:08;;;;;;;8.93;5.80;;;;;;;;;;5056586;28;20079;-76
2022/07/25 01:46:34;;;;;;;8.15;4.97;;;;;;;;;;5074439;28;20051;-75
2022/07/25 01:49:00;;;;;;;7.63;5.30;;;;;;;;;;5065731;28;20040;-75
2022/07/25 01:51:26;;;;;;;6.72;5.65;;;;;;;;;;5071663;28;20097;-75
2022/07/25 01:53:52;;;;;;;8.13;5.90;;;;;;;;;;5074566;28;20127;-76
2022/07/25 01:56:18;;;;;;;7.88;5.38;;;;;;;;;;5074577;28;20435;-76
2022/07/25 01:58:44;;;;;;;7.10;5.20;;;;;;;;;;5062724;28;20089;-76
2022/07/25 02:01:10;;;;;;;8.25;5.70;;;;;;;;;;5079454;28;20047;-76
2022/07/25 02:03:36;;;;;;;10.07;5.50;;;;;;;;;;5064260;28;20076;-75
2022/07/25 02:06:04;;;;;;;8.43;5.35;;;;;;;;;;5082354;28;20093;-75
2022/07/25 02:08:30;;;;;;;7.80;5.50;;;;;;;;;;5090180;28;20085;-76
2022/07/25 02:10:57;;;;;;;8.98;4.90;;;;;;;;;;5073378;28;20045;-76
2022/07/25 02:13:23;;;;;;;7.15;5.13;;;;;;;;;;5091319;28;20056;-76
2022/07/25 02:15:50;;;;;;;7.53;5.35;;;;;;;;;;5081524;28;20044;-76
2022/07/25 02:18:16;;;;;;;8.48;5.38;;;;;;;;;;5083107;28;20075;-76
2022/07/25 02:20:42;;;;;;;7.32;6.10;;;;;;;;;;5098261;28;20052;-76
2022/07/25 02:23:08;;;;;;;8.45;5.60;;;;;;;;;;5098609;28;20091;-77
2022/07/25 02:25:36;;;;;;;7.70;5.65;;;;;;;;;;5079756;28;20046;-76
2022/07/25 02:28:02;;;;;;;9.60;5.28;;;;;;;;;;5083376;28;20089;-76
2022/07/25 02:30:28;;;;;;;6.20;5.15;;;;;;;;;;5079732;28;20044;-76
2022/07/25 02:32:54;;;;;;;5.82;5.18;;;;;;;;;;5080012;28;20039;-75
2022/07/25 02:35:20;;;;;;;7.85;5.68;;;;;;;;;;5079640;28;20058;-76
2022/07/25 02:37:46;;;;;;;7.32;5.22;;;;;;;;;;5079959;28;20036;-76
2022/07/25 02:40:13;;;;;;;7.25;6.07;;;;;;;;;;5079715;28;20039;-76
2022/07/25 02:42:39;;;;;;;6.60;5.38;;;;;;;;;;5063127;28;20067;-76
2022/07/25 02:45:05;;;;;;;8.30;5.45;;;;;;;;;;5046950;28;20493;-76
2022/07/25 02:47:31;;;;;;;7.05;5.40;;;;;;;;;;5053633;28;20041;-76
2022/07/25 02:49:57;;;;;;;8.43;5.15;;;;;;;;;;5059656;28;20101;-76
2022/07/25 02:52:23;;;;;;;8.60;5.38;;;;;;;;;;5053744;28;20045;-76
2022/07/25 02:54:49;;;;;;;6.85;5.60;;;;;;;;;;5077190;28;20173;-76
2022/07/25 02:57:16;;;;;;;7.47;5.85;;;;;;;;;;5079494;28;20039;-76
2022/07/25 02:59:42;;;;;;;10.90;5.82;;;;;;;;;;5063213;28;20116;-76
2022/07/25 03:02:08;;;;;;;6.60;5.85;;;;;;;;;;5063625;28;20519;-76
2022/07/25 03:04:34;;;;;;;11.07;6.50;;;;;;;;;;5063183;28;20375;-76
2022/07/25 03:07:00;;;;;;;10.57;6.05;;;;;;;;;;5076377;28;20070;-76
2022/07/25 03:09:26;;;;;;;7.78;6.47;;;;;;;;;;5080950;28;20040;-76
2022/07/25 03:11:52;;;;;;;9.00;6.00;;;;;;;;;;5078847;28;20040;-76
2022/07/25 03:14:18;;;;;;;7.95;6.18;;;;;;;;;;5076620;28;20043;-76
2022/07/25 03:16:44;;;;;;;9.20;6.70;;;;;;;;;;5066760;28;20077;-76
2022/07/25 03:19:11;;;;;;;11.73;6.70;;;;;;;;;;5087067;28;20036;-77
2022/07/25 03:21:37;;;;;;;8.90;6.97;;;;;;;;;;5076689;28;20500;-77
2022/07/25 03:24:04;;;;;;;8.93;7.18;;;;;;;;;;5042618;28;20105;-77
2022/07/25 03:26:30;;;;;;;8.52;6.65;;;;;;;;;;5085414;28;20047;-77
2022/07/25 03:28:56;;;;;;;8.57;6.85;;;;;;;;;;5078658;28;20092;-76
2022/07/25 03:31:22;;;;;;;9.93;7.50;;;;;;;;;;5076473;28;20040;-77
2022/07/25 03:33:48;;;;;;;8.70;7.10;;;;;;;;;;5076329;28;20040;-76
2022/07/25 03:36:14;;;;;;;10.50;7.80;;;;;;;;;;5059190;28;20116;-77
2022/07/25 03:38:40;;;;;;;8.90;7.65;;;;;;;;;;5076680;28;20496;-77
2022/07/25 03:41:06;;;;;;;9.32;7.45;;;;;;;;;;5076007;28;20453;-77
2022/07/25 03:43:32;;;;;;;10.32;7.38;;;;;;;;;;5076315;28;20046;-77
2022/07/25 03:45:58;;;;;;;8.85;7.10;;;;;;;;;;5075279;28;20055;-77
2022/07/25 03:48:24;;;;;;;10.82;6.85;;;;;;;;;;5073369;28;20036;-77
2022/07/25 03:50:50;;;;;;;10.80;7.68;;;;;;;;;;5075553;28;20070;-77
2022/07/25 03:53:16;;;;;;;9.80;6.93;;;;;;;;;;5075565;28;20093;-77
2022/07/25 03:55:43;;;;;;;11.20;7.60;;;;;;;;;;5075512;28;20036;-76
2022/07/25 03:58:09;;;;;;;9.95;7.10;;;;;;;;;;5075631;28;20036;-77
2022/07/25 04:00:35;;;;;;;9.65;7.53;;;;;;;;;;5082621;28;20092;-77
2022/07/25 04:03:01;;;;;;;11.55;7.70;;;;;;;;;;5075329;28;20028;-77
2022/07/25 04:05:28;;;;;;;11.68;7.40;;;;;;;;;;5073569;28;20059;-76
2022/07/25 04:07:55;;;;;;;10.10;7.47;;;;;;;;;;5064510;28;20113;-76
2022/07/25 04:10:21;;;;;;;10.82;8.32;;;;;;;;;;5076461;28;20039;-76
2022/07/25 04:12:47;;;;;;;10.85;7.55;;;;;;;;;;5053325;28;20101;-77
2022/07/25 04:15:14;;;;;;;8.73;7.65;;;;;;;;;;5053109;28;20054;-77
2022/07/25 04:17:40;;;;;;;9.52;7.65;;;;;;;;;;5075431;28;20040;-77
2022/07/25 04:20:06;;;;;;;9.95;7.25;;;;;;;;;;5092709;28;20043;-76
2022/07/25 04:22:32;;;;;;;11.43;7.78;;;;;;;;;;5076931;28;20048;-77
2022/07/25 04:24:58;;;;;;;11.13;7.78;;;;;;;;;;5093870;28;20060;-77
2022/07/25 04:27:24;;;;;;;11.52;7.95;;;;;;;;;;5076078;28;20075;-77
2022/07/25 04:29:51;;;;;;;11.55;8.00;;;;;;;;;;5075404;28;20130;-76
2022/07/25 04:32:18;;;;;;;12.20;8.30;;;;;;;;;;5093245;28;20032;-77
2022/07/25 04:34:44;;;;;;;10.63;8.43;;;;;;;;;;5074260;28;20067;-75
2022/07/25 04:37:10;;;;;;;12.88;8.05;;;;;;;;;;5092102;28;20097;-77
2022/07/25 04:39:36;;;;;;;12.90;8.10;;;;;;;;;;5070399;28;20070;-76
2022/07/25 04:42:02;;;;;;;10.93;7.93;;;;;;;;;;5066319;28;20066;-77
2022/07/25 04:44:29;;;;;;;9.45;7.90;;;;;;;;;;5074734;28;20040;-76
2022/07/25 04:46:55;;;;;;;11.65;8.25;;;;;;;;;;5078354;28;20074;-76
2022/07/25 04:49:21;;;;;;;10.65;8.07;;;;;;;;;;5075245;28;20461;-77
2022/07/25 04:51:47;;;;;;;11.00;7.63;;;;;;;;;;5058038;28;20048;-77
2022/07/25 04:54:13;;;;;;;11.23;8.25;;;;;;;;;;5074698;28;20043;-77
2022/07/25 04:56:39;;;;;;;10.07;8.20;;;;;;;;;;5074317;28;20028;-76
2022/07/25 04:59:05;;;;;;;10.23;8.27;;;;;;;;;;5082604;28;20111;-77
2022/07/25 05:01:31;;;;;;;11.35;8.52;;;;;;;;;;5071269;28;20040;-74
2022/07/25 05:03:57;;;;;;;13.27;9.05;;;;;;;;;;5047159;28;20078;-76
2022/07/25 05:06:23;;;;;;;11.15;9.07;;;;;;;;;;5074809;28;20036;-77
2022/07/25 05:08:49;;;;;;;10.00;8.52;;;;;;;;;;5057889;28;20047;-76
2022/07/25 05:11:15;;;;;;;11.23;8.30;;;;;;;;;;5057920;28;20062;-77
2022/07/25 05:13:41;;;;;;;10.48;8.77;;;;;;;;;;5073828;28;20052;-76
2022/07/25 05:16:08;;;;;;;11.57;9.05;;;;;;;;;;5061500;28;20036;-76
2022/07/25 05:18:34;;;;;;;11.32;8.15;;;;;;;;;;5074085;28;20036;-76
2022/07/25 05:21:00;;;;;;;9.75;8.57;;;;;;;;;;5091900;28;20040;-76
2022/07/25 05:23:26;;;;;;;11.23;8.52;;;;;;;;;;5057499;28;20040;-76
2022/07/25 05:25:52;;;;;;;10.35;8.45;;;;;;;;;;5072263;28;20088;-76
2022/07/25 05:28:18;;;;;;;12.15;8.70;;;;;;;;;;5082844;28;20039;-76
2022/07/25 05:30:45;;;;;;;11.48;8.68;;;;;;;;;;5078718;28;20040;-76
2022/07/25 05:33:11;;;;;;;10.98;8.70;;;;;;;;;;5074009;28;20511;-76
2022/07/25 05:35:37;;;;;;;11.95;8.65;;;;;;;;;;5073570;28;20044;-76
2022/07/25 05:38:03;;;;;;;10.73;7.95;;;;;;;;;;5091809;28;20101;-76
2022/07/25 05:40:29;;;;;;;11.43;8.77;;;;;;;;;;5057923;28;20039;-76
2022/07/25 05:42:55;;;;;;;10.60;8.68;;;;;;;;;;5057034;28;20036;-76
2022/07/25 05:45:21;;;;;;;13.27;8.70;;;;;;;;;;5074293;28;20374;-76
2022/07/25 05:47:47;;;;;;;14.05;9.57;;;;;;;;;;5073413;28;20477;-76
2022/07/25 05:50:13;;;;;;;11.88;8.98;;;;;;;;;;5074123;28;20036;-76
2022/07/25 05:52:39;;;;;;;11.00;8.60;;;;;;;;;;5073965;28;20044;-76
2022/07/25 05:55:06;;;;;;;11.68;8.57;;;;;;;;;;5074459;28;20105;-76
2022/07/25 05:57:32;;;;;;;11.55;8.93;;;;;;;;;;5073348;28;20040;-77
2022/07/25 05:59:58;;;;;;;10.38;9.20;;;;;;;;;;5073887;28;20446;-77
2022/07/25 06:02:24;;;;;;;15.40;9.07;;;;;;;;;;5078408;28;20040;-77
2022/07/25 06:04:50;;;;;;;12.38;8.60;;;;;;;;;;5090237;28;20396;-77
2022/07/25 06:07:16;;;;;;;10.38;9.20;;;;;;;;;;5076004;28;20043;-78
2022/07/25 06:09:42;;;;;;;14.75;8.90;;;;;;;;;;5067446;28;20068;-78
2022/07/25 06:12:08;;;;;;;12.43;8.50;;;;;;;;;;5050551;28;20044;-77
2022/07/25 06:14:34;;;;;;;13.38;9.15;;;;;;;;;;5065075;28;20044;-72
2022/07/25 06:17:00;;;;;;;11.77;8.70;;;;;;;;;;5091400;28;20120;-72
2022/07/25 06:19:27;;;;;;;10.70;9.02;;;;;;;;;;5073150;28;20388;-71
2022/07/25 06:21:54;;;;;;;14.38;8.65;;;;;;;;;;5097364;28;20104;-72
2022/07/25 06:24:20;;;;;;;11.60;8.95;;;;;;;;;;5093422;28;20535;-75
2022/07/25 06:26:46;;;;;;;11.82;8.60;;;;;;;;;;5070942;28;20045;-74
2022/07/25 06:29:12;;;;;;;10.90;8.20;;;;;;;;;;5053809;28;20047;-73
2022/07/25 06:31:38;;;;;;;15.90;8.60;;;;;;;;;;5070030;28;20047;-73
2022/07/25 06:34:04;;;;;;;10.75;8.77;;;;;;;;;;5081964;28;20071;-74
2022/07/25 06:36:30;;;;;;;10.90;9.10;;;;;;;;;;5058217;28;20043;-74
2022/07/25 06:38:56;;;;;;;11.77;8.43;;;;;;;;;;5075472;28;20075;-74
2022/07/25 06:41:22;;;;;;;11.98;9.10;;;;;;;;;;5068355;28;20040;-74
2022/07/25 06:43:48;;;;;;;12.05;9.93;;;;;;;;;;5066636;28;20041;-74
2022/07/25 06:46:14;;;;;;;10.80;9.10;;;;;;;;;;5088669;28;20109;-73
2022/07/25 06:48:41;;;;;;;12.55;9.43;;;;;;;;;;5078360;28;20043;-73
2022/07/25 06:51:07;;;;;;;11.93;9.43;;;;;;;;;;5044204;28;20039;-73
2022/07/25 06:53:33;;;;;;;16.48;10.07;;;;;;;;;;5095039;28;20048;-73
2022/07/25 06:56:00;;;;;;;14.68;8.98;;;;;;;;;;5067583;28;20119;-73
2022/07/25 06:58:26;;;;;;;12.13;9.05;;;;;;;;;;5082762;28;20496;-73
2022/07/25 07:00:52;;;;;;;11.10;8.70;;;;;;;;;;5080517;28;20036;-73
2022/07/25 07:03:18;;;;;;;12.15;8.65;;;;;;;;;;5081925;28;20039;-74
2022/07/25 07:05:44;;;;;;;12.93;9.23;;;;;;;;;;5084057;28;20039;-73
2022/07/25 07:08:10;;;;;;;11.90;9.02;;;;;;;;;;5087109;28;20051;-73
2022/07/25 07:10:36;;;;;;;8.65;7.75;;;;;;;;;;5070907;28;20040;-74
2022/07/25 07:13:07;;;;;;;11.00;7.97;;;;;;;;;;5046450;28;20437;-74
2022/07/25 07:15:33;;;;;;;11.18;8.60;;;;;;;;;;5056787;28;20439;-73
2022/07/25 07:17:59;;;;;;;11.40;7.68;;;;;;;;;;5082997;28;20048;-74
2022/07/25 07:20:25;;;;;;;8.35;7.00;;;;;;;;;;5078089;28;20036;-73
2022/07/25 07:22:51;;;;;;;9.68;7.00;;;;;;;;;;5079404;28;20043;-73
2022/07/25 07:25:20;;;;;;;10.32;6.53;;;;;;;;;;5087617;28;20492;-73
2022/07/25 07:27:46;;;;;;;8.93;5.68;;;;;;;;;;5079255;28;20032;-73
2022/07/25 07:30:13;;;;;;;6.32;4.80;;;;;;;;;;5088343;28;20116;-73
2022/07/25 07:32:40;;;;;;;5.47;4.22;;;;;;;;;;5073785;28;20043;-73
2022/07/25 07:35:06;;;;;;;7.05;4.40;;;;;;;;;;5070357;28;20044;-73
2022/07/25 07:37:32;;;;;;;5.72;3.80;;;;;;;;;;5064487;28;20051;-73
2022/07/25 07:39:58;;;;;;;4.07;2.25;;;;;;;;;;5086087;28;20036;-73
2022/07/25 07:42:24;;;;;;;3.38;2.10;;;;;;;;;;5068793;28;20032;-73
2022/07/25 07:44:50;;;;;;;3.72;1.83;;;;;;;;;;5080778;28;20039;-73
2022/07/25 07:47:16;;;;;;;4.88;1.95;;;;;;;;;;5050351;28;20071;-73
2022/07/25 07:49:42;;;;;;;3.75;2.05;;;;;;;;;;5082642;28;20044;-74
2022/07/25 07:52:08;;;;;;;2.85;1.95;;;;;;;;;;5050237;28;20413;-73
2022/07/25 07:57:19;;;;;;;3.33;1.70;;;;;;;;;;5067376;28;20040;-73
2022/07/25 07:59:45;;;;;;;4.95;2.28;;;;;;;;;;5066318;28;20043;-73
2022/07/25 08:02:11;;;;;;;3.35;1.98;;;;;;;;;;5073435;28;20044;-73
2022/07/25 08:04:37;;;;;;;3.40;1.65;;;;;;;;;;5078444;28;20045;-73
2022/07/25 08:07:03;;;;;;;2.60;1.67;;;;;;;;;;5083121;28;20040;-74
2022/07/25 08:09:29;;;;;;;3.10;1.63;;;;;;;;;;5068076;28;20050;-74
2022/07/25 08:11:55;;;;;;;5.32;1.83;;;;;;;;;;5080113;28;20041;-74
2022/07/25 08:14:21;;;;;;;4.38;1.60;;;;;;;;;;5093632;28;20076;-74
2022/07/25 08:16:47;;;;;;;4.10;1.70;;;;;;;;;;5075814;28;20090;-74
2022/07/25 08:19:14;;;;;;;5.13;2.25;;;;;;;;;;5075434;28;20397;-74
2022/07/25 08:21:40;;;;;;;2.90;1.92;;;;;;;;;;5075002;28;20079;-74
2022/07/25 08:24:06;;;;;;;4.10;1.80;;;;;;;;;;5074555;28;21458;-74
2022/07/25 08:26:32;;;;;;;3.33;1.85;;;;;;;;;;5075590;28;20075;-74
2022/07/25 08:28:58;;;;;;;3.33;2.00;;;;;;;;;;5075789;28;20047;-74
2022/07/25 08:31:26;;;;;;;4.20;2.10;;;;;;;;;;5072361;28;20404;-74
2022/07/25 08:33:52;;;;;;;4.35;2.40;;;;;;;;;;5060725;28;20441;-73
2022/07/25 08:36:18;;;;;;;3.42;2.20;;;;;;;;;;5076533;28;20085;-74
2022/07/25 08:38:44;;;;;;;5.05;2.40;;;;;;;;;;5087858;28;20040;-74
2022/07/25 08:41:11;;;;;;;5.60;2.60;;;;;;;;;;5057545;28;20038;-74
2022/07/25 08:43:38;;;;;;;5.70;2.50;;;;;;;;;;5078680;28;20527;-74
2022/07/25 08:46:05;;;;;;;3.92;2.30;;;;;;;;;;5063479;28;20055;-74
2022/07/25 08:48:32;;;;;;;4.53;2.45;;;;;;;;;;5062630;28;20466;-74
2022/07/25 08:50:59;;;;;;;4.20;2.28;;;;;;;;;;5077343;28;20126;-73
2022/07/25 08:53:25;;;;;;;5.00;2.25;;;;;;;;;;5068054;28;20042;-74
2022/07/25 08:55:51;;;;;;;4.18;2.05;;;;;;;;;;5067522;28;20085;-74
2022/07/25 08:58:18;;;;;;;3.22;2.05;;;;;;;;;;5061843;28;20051;-74
2022/07/25 09:00:44;;;;;;;2.97;2.00;;;;;;;;;;5058336;28;20044;-76
2022/07/25 09:03:10;;;;;;;3.08;1.70;;;;;;;;;;5078498;28;20046;-74
2022/07/25 09:05:37;;;;;;;4.30;1.80;;;;;;;;;;5060508;28;20051;-74
2022/07/25 09:08:11;;;;;;;4.72;2.20;;;;;;;;;;5069019;28;20039;-74
2022/07/25 09:10:38;;;;;;;3.38;1.92;;;;;;;;;;5065991;28;20054;-75
2022/07/25 09:13:12;;;;;;;3.65;1.85;;;;;;;;;;5073964;28;20047;-74
2022/07/25 09:15:40;;;;;;;4.80;2.00;;;;;;;;;;5074576;28;20039;-74
2022/07/25 09:18:07;;;;;;;3.30;1.80;;;;;;;;;;5074445;28;20504;-75
2022/07/25 09:20:42;;;;;;;6.00;1.85;;;;;;;;;;5074290;28;20039;-74
2022/07/25 09:23:08;;;;;;;5.83;1.67;;;;;;;;;;5074445;28;20508;-74
2022/07/25 09:25:34;;;;;;;3.78;1.63;;;;;;;;;;5074284;28;20111;-75
2022/07/25 09:28:13;;;;;;;3.60;1.75;;;;;;;;;;5077452;28;20040;-75
2022/07/25 09:30:39;;;;;;;3.42;1.60;;;;;;;;;;5074617;28;20036;-74
2022/07/25 09:33:05;;;;;;;3.40;1.80;;;;;;;;;;5073174;28;20084;-74
2022/07/25 09:35:33;;;;;;;3.35;1.63;;;;;;;;;;5073883;28;20036;-74
2022/07/25 09:38:15;;;;;;;4.45;1.60;;;;;;;;;;5074225;28;20044;-73
2022/07/25 09:40:41;;;;;;;3.33;1.80;;;;;;;;;;5074365;28;20039;-74
2022/07/25 09:43:07;;;;;;;3.72;1.70;;;;;;;;;;5056378;28;20032;-75
2022/07/25 09:45:34;;;;;;;3.80;1.80;;;;;;;;;;5074489;28;20508;-75
2022/07/25 09:48:01;;;;;;;6.60;1.70;;;;;;;;;;5057430;28;20032;-74
2022/07/25 09:50:28;;;;;;;3.30;1.40;;;;;;;;;;5073577;28;20036;-74
2022/07/25 09:52:55;;;;;;;5.30;1.73;;;;;;;;;;5073595;28;20032;-74
2022/07/25 09:55:22;;;;;;;4.35;1.60;;;;;;;;;;5091994;28;20051;-73
2022/07/25 09:57:48;;;;;;;4.22;1.88;;;;;;;;;;5088313;28;20039;-74
2022/07/25 10:00:15;;;;;;;4.97;1.50;;;;;;;;;;5073634;28;20059;-74
2022/07/25 10:02:48;;;;;;;4.60;1.40;;;;;;;;;;5057590;28;20072;-75
2022/07/25 10:05:34;;;;;;;5.65;2.08;;;;;;;;;;5073580;28;20547;-75
2022/07/25 10:08:04;;;;;;;7.65;1.83;;;;;;;;;;5057246;28;20549;-75
2022/07/25 10:10:32;;;;;;;6.63;1.88;;;;;;;;;;5054308;28;20123;-75
2022/07/25 10:12:59;;;;;;;6.32;1.90;;;;;;;;;;5043373;28;20044;-75
2022/07/25 10:15:26;;;;;;;6.60;1.92;;;;;;;;;;5070639;28;20074;-75
2022/07/25 10:18:02;;;;;;;5.72;1.85;;;;;;;;;;5074028;28;20039;-76
2022/07/25 10:20:28;;;;;;;5.97;1.80;;;;;;;;;;5077557;28;20048;-75
2022/07/25 10:22:55;;;;;;;7.57;2.00;;;;;;;;;;5058130;28;20037;-75
2022/07/25 10:25:21;;;;;;;5.97;2.25;;;;;;;;;;5062579;28;20040;-74
2022/07/25 10:27:49;;;;;;;7.03;2.13;;;;;;;;;;5063829;28;20035;-76
2022/07/25 10:30:19;;;;;;;9.40;2.42;;;;;;;;;;5066131;28;20097;-75
2022/07/25 10:33:05;;;;;;;9.07;2.20;;;;;;;;;;5041016;28;20044;-74
2022/07/25 10:35:32;;;;;;;6.65;2.40;;;;;;;;;;5066575;28;20189;-74
2022/07/25 10:37:58;;;;;;;8.93;2.20;;;;;;;;;;5041846;28;20047;-74
2022/07/25 10:40:28;;;;;;;5.85;2.10;;;;;;;;;;5040833;28;20036;-74
2022/07/25 10:43:01;;;;;;;7.30;2.20;;;;;;;;;;5071775;28;20040;-74
2022/07/25 10:45:37;;;;;;;5.95;2.45;;;;;;;;;;5058423;28;20032;-73
2022/07/25 10:48:06;;;;;;;6.30;2.40;;;;;;;;;;5057431;28;20039;-74
2022/07/25 10:50:32;;;;;;;5.82;2.40;;;;;;;;;;5058185;28;20036;-75
2022/07/25 10:53:06;;;;;;;7.78;2.67;;;;;;;;;;5057266;28;20115;-75
2022/07/25 10:55:35;;;;;;;9.53;3.00;;;;;;;;;;5024084;28;20072;-74
2022/07/25 10:58:03;;;;;;;6.10;2.63;;;;;;;;;;5053408;28;20481;-75
2022/07/25 11:00:30;;;;;;;5.97;2.67;;;;;;;;;;5056884;28;20052;-74
2022/07/25 11:02:56;;;;;;;7.10;2.85;;;;;;;;;;5057214;28;20548;-74
2022/07/25 11:05:23;;;;;;;7.35;2.35;;;;;;;;;;5056809;28;20044;-74
2022/07/25 11:07:51;;;;;;;5.05;2.50;;;;;;;;;;5042531;28;20055;-74
2022/07/25 11:10:24;;;;;;;7.18;2.50;;;;;;;;;;5056672;28;20044;-74
2022/07/25 11:12:50;;;;;;;8.30;2.42;;;;;;;;;;5042178;28;20055;-75
2022/07/25 11:15:20;;;;;;;4.78;1.95;;;;;;;;;;5050484;28;20045;-74
2022/07/25 11:17:51;;;;;;;7.28;2.47;;;;;;;;;;5057972;28;20072;-73
2022/07/25 11:20:18;;;;;;;5.68;1.92;;;;;;;;;;5056548;28;20043;-75
2022/07/25 11:22:50;;;;;;;6.10;1.83;;;;;;;;;;5047031;28;20060;-75
2022/07/25 11:25:18;;;;;;;4.20;1.77;;;;;;;;;;5056537;28;20070;-74
2022/07/25 11:27:44;;;;;;;5.63;1.55;;;;;;;;;;5052330;28;20045;-74
2022/07/25 11:30:13;;;;;;;8.70;1.95;;;;;;;;;;5064639;28;20129;-74
2022/07/25 11:32:40;;;;;;;4.45;1.73;;;;;;;;;;5056246;28;20386;-74
2022/07/25 11:35:07;;;;;;;4.60;2.00;;;;;;;;;;5039826;28;20051;-74
2022/07/25 11:37:35;;;;;;;5.18;2.10;;;;;;;;;;5047451;28;20055;-74
2022/07/25 11:40:02;;;;;;;9.07;2.40;;;;;;;;;;5067664;28;20044;-75
2022/07/25 11:42:38;;;;;;;4.97;1.80;;;;;;;;;;5056070;28;20040;-73
2022/07/25 11:45:14;;;;;;;7.57;2.17;;;;;;;;;;5056353;28;20101;-74
2022/07/25 11:47:40;;;;;;;6.32;1.77;;;;;;;;;;5056089;28;20610;-75
2022/07/25 11:50:09;;;;;;;7.38;2.22;;;;;;;;;;5046334;28;20552;-74
2022/07/25 11:52:37;;;;;;;6.05;1.90;;;;;;;;;;5048980;28;20053;-75
2022/07/25 11:55:07;;;;;;;5.63;1.80;;;;;;;;;;5055634;28;20036;-74
2022/07/25 11:57:35;;;;;;;8.70;2.10;;;;;;;;;;5055878;28;20040;-74
2022/07/25 12:00:03;;;;;;;8.27;2.20;;;;;;;;;;5054223;28;20032;-75
2022/07/25 12:02:30;;;;;;;7.55;2.28;;;;;;;;;;5055524;28;20076;-76
2022/07/25 12:04:58;;;;;;;7.10;2.10;;;;;;;;;;5069906;28;20082;-75
2022/07/25 12:07:37;;;;;;;7.28;2.03;;;;;;;;;;5031937;28;20052;-76
2022/07/25 12:10:03;;;;;;;5.20;1.83;;;;;;;;;;5059999;28;20043;-75
2022/07/25 12:12:41;;;;;;;6.50;2.00;;;;;;;;;;5038800;28;20082;-76
2022/07/25 12:15:09;;;;;;;6.13;1.92;;;;;;;;;;5055777;28;20103;-76
2022/07/25 12:17:35;;;;;;;7.40;2.13;;;;;;;;;;5038623;28;20115;-74
2022/07/25 12:20:01;;;;;;;5.65;2.00;;;;;;;;;;5054345;28;20055;-74
2022/07/25 12:22:27;;;;;;;5.28;1.90;;;;;;;;;;5066437;28;20044;-75
2022/07/25 12:24:53;;;;;;;4.80;1.80;;;;;;;;;;5061955;28;20055;-73
2022/07/25 12:27:19;;;;;;;5.40;1.77;;;;;;;;;;5074091;28;20135;-74
2022/07/25 12:29:45;;;;;;;5.63;1.85;;;;;;;;;;5059010;28;20508;-74
2022/07/25 12:32:11;;;;;;;4.78;1.60;;;;;;;;;;5075293;28;20047;-74
2022/07/25 12:34:37;;;;;;;6.47;1.70;;;;;;;;;;5063633;28;20043;-74
2022/07/25 12:37:03;;;;;;;7.68;1.98;;;;;;;;;;5083833;28;20120;-74
2022/07/25 12:39:29;;;;;;;5.93;1.63;;;;;;;;;;5075060;28;20058;-74
2022/07/25 12:41:56;;;;;;;6.43;1.75;;;;;;;;;;5075359;28;20036;-75
2022/07/25 12:44:22;;;;;;;4.75;1.60;;;;;;;;;;5058533;28;20052;-75
2022/07/25 12:46:48;;;;;;;6.10;1.55;;;;;;;;;;5058262;28;20123;-74
2022/07/25 12:49:14;;;;;;;6.22;1.80;;;;;;;;;;5058273;28;20055;-75
2022/07/25 12:51:40;;;;;;;5.78;1.75;;;;;;;;;;5074600;28;20040;-76
2022/07/25 12:54:06;;;;;;;4.32;1.63;;;;;;;;;;5075007;28;20090;-74
2022/07/25 12:56:32;;;;;;;6.30;2.00;;;;;;;;;;5092298;28;20032;-74
2022/07/25 12:58:58;;;;;;;7.72;1.83;;;;;;;;;;5058121;28;20044;-76
2022/07/25 13:01:24;;;;;;;6.20;2.00;;;;;;;;;;5074879;28;20040;-74
2022/07/25 13:03:50;;;;;;;7.30;2.20;;;;;;;;;;5074376;28;20047;-76
2022/07/25 13:06:19;;;;;;;5.05;1.70;;;;;;;;;;5058304;28;20496;-75
2022/07/25 13:08:45;;;;;;;6.75;2.40;;;;;;;;;;5074241;28;20492;-74
2022/07/25 13:11:12;;;;;;;5.97;2.00;;;;;;;;;;5074772;28;20085;-75
2022/07/25 13:13:38;;;;;;;8.70;2.20;;;;;;;;;;5074227;28;20047;-75
2022/07/25 13:16:04;;;;;;;7.93;2.22;;;;;;;;;;5074917;28;20503;-75
2022/07/25 13:18:31;;;;;;;6.57;2.30;;;;;;;;;;5092334;28;20032;-74
2022/07/25 13:20:59;;;;;;;6.57;2.30;;;;;;;;;;5073822;28;20415;-75
2022/07/25 13:23:25;;;;;;;6.82;2.13;;;;;;;;;;5074817;28;20490;-75
2022/07/25 13:25:51;;;;;;;6.13;2.20;;;;;;;;;;5074271;28;20415;-74
2022/07/25 13:28:18;;;;;;;6.53;2.38;;;;;;;;;;5061118;28;20055;-75
2022/07/25 13:30:44;;;;;;;7.95;2.42;;;;;;;;;;5057406;28;20090;-74
2022/07/25 13:33:10;;;;;;;7.53;2.40;;;;;;;;;;5074213;28;20048;-74
2022/07/25 13:35:37;;;;;;;6.72;2.33;;;;;;;;;;5073692;28;20122;-74
2022/07/25 13:38:03;;;;;;;7.32;2.47;;;;;;;;;;5074040;28;20036;-74
2022/07/25 13:40:29;;;;;;;8.05;2.40;;;;;;;;;;5057543;28;20040;-74
2022/07/25 13:42:55;;;;;;;9.10;2.13;;;;;;;;;;5073953;28;20036;-74
2022/07/25 13:45:21;;;;;;;8.50;2.30;;;;;;;;;;5092415;28;20032;-74
2022/07/25 13:47:47;;;;;;;6.18;2.15;;;;;;;;;;5073552;28;20067;-76
2022/07/25 13:50:13;;;;;;;7.25;1.92;;;;;;;;;;5074088;28;20040;-75
2022/07/25 13:52:39;;;;;;;7.22;1.90;;;;;;;;;;5056856;28;20044;-77
2022/07/25 13:55:06;;;;;;;8.95;2.10;;;;;;;;;;5073798;28;20032;-75
2022/07/25 13:57:32;;;;;;;6.68;1.90;;;;;;;;;;5074418;28;20396;-74
2022/07/25 13:59:58;;;;;;;7.07;2.10;;;;;;;;;;5086737;28;20429;-75
2022/07/25 14:02:24;;;;;;;7.03;2.03;;;;;;;;;;5071422;28;20093;-74
2022/07/25 14:04:51;;;;;;;8.20;2.40;;;;;;;;;;5077195;28;20072;-74
2022/07/25 14:07:17;;;;;;;8.15;2.10;;;;;;;;;;5073823;28;20089;-76
2022/07/25 14:09:43;;;;;;;5.93;2.08;;;;;;;;;;5073700;28;20047;-74
2022/07/25 14:12:09;;;;;;;7.05;1.77;;;;;;;;;;5056254;28;20086;-75
2022/07/25 14:14:35;;;;;;;6.45;1.92;;;;;;;;;;5057419;28;20082;-74
2022/07/25 14:17:01;;;;;;;7.60;1.85;;;;;;;;;;5074153;28;20515;-75
2022/07/25 14:19:27;;;;;;;7.13;2.30;;;;;;;;;;5037443;28;20037;-74
2022/07/25 14:21:53;;;;;;;7.40;2.38;;;;;;;;;;5066053;28;20492;-74
2022/07/25 14:24:20;;;;;;;9.07;2.42;;;;;;;;;;5073424;28;20047;-73
2022/07/25 14:26:47;;;;;;;7.22;2.25;;;;;;;;;;5073487;28;20039;-74
2022/07/25 14:29:14;;;;;;;9.98;2.28;;;;;;;;;;5070828;28;20051;-74
2022/07/25 14:31:40;;;;;;;8.20;2.10;;;;;;;;;;5073537;28;20071;-74
2022/07/25 14:34:06;;;;;;;7.78;2.20;;;;;;;;;;5057070;28;20044;-74
2022/07/25 14:36:32;;;;;;;7.97;2.35;;;;;;;;;;5072833;28;20108;-74
2022/07/25 14:38:59;;;;;;;8.98;2.50;;;;;;;;;;5056152;28;20408;-75
2022/07/25 14:41:25;;;;;;;8.65;2.08;;;;;;;;;;5056129;28;20040;-75